Time;durP1;ratioP1;P1;durP2;ratioP2;P2;SDS_P1;SDS_P2;PMS_P1;PMS_P2;Temp;Humidity;BMP_temperature;BMP_pressure;BME280_temperature;BME280_humidity;BME280_pressure;Samples;Min_cycle;Max_cycle;Signal;HPM_P1;HPM_P2
2021/01/19 00:00:22;;;;;;;11.20;7.13;;;2.90;71.40;;;;;;4999020;28;84042;-77
2021/01/19 00:02:48;;;;;;;12.70;7.85;;;2.90;71.50;;;;;;5000674;28;83677;-78
2021/01/19 00:05:14;;;;;;;13.85;8.48;;;2.80;71.70;;;;;;5001347;28;79990;-78
2021/01/19 00:07:40;;;;;;;14.27;7.40;;;2.80;71.80;;;;;;5000288;28;81978;-78
2021/01/19 00:10:06;;;;;;;15.73;8.15;;;2.80;71.70;;;;;;5001497;28;82459;-78
2021/01/19 00:12:32;;;;;;;13.65;8.05;;;2.80;71.80;;;;;;5020064;28;80549;-79
2021/01/19 00:14:58;;;;;;;12.00;7.72;;;2.90;71.70;;;;;;5002086;28;82758;-78
2021/01/19 00:17:24;;;;;;;17.20;7.57;;;2.90;71.70;;;;;;5001943;28;82710;-78
2021/01/19 00:19:50;;;;;;;13.10;7.60;;;2.90;71.70;;;;;;5003651;28;80225;-78
2021/01/19 00:22:15;;;;;;;13.65;7.93;;;2.90;71.90;;;;;;5004613;28;80836;-78
2021/01/19 00:24:41;;;;;;;16.05;8.43;;;2.90;72.00;;;;;;4999876;28;80551;-77
2021/01/19 00:27:07;;;;;;;15.80;8.20;;;2.90;72.00;;;;;;4998329;28;80860;-78
2021/01/19 00:29:33;;;;;;;13.23;6.82;;;2.90;72.00;;;;;;4997767;28;80738;-78
2021/01/19 00:31:59;;;;;;;11.85;6.57;;;2.90;72.20;;;;;;4998510;28;79836;-79
2021/01/19 00:34:25;;;;;;;11.88;7.03;;;2.80;72.10;;;;;;4998909;28;82666;-78
2021/01/19 00:36:51;;;;;;;10.75;6.45;;;2.80;72.00;;;;;;4999385;28;82944;-79
2021/01/19 00:39:17;;;;;;;12.77;7.63;;;2.80;72.00;;;;;;5000156;28;81982;-78
2021/01/19 00:41:42;;;;;;;11.25;6.65;;;2.80;71.90;;;;;;4999135;28;82833;-78
2021/01/19 00:44:08;;;;;;;14.10;7.13;;;2.80;71.90;;;;;;4998674;28;80329;-78
2021/01/19 00:46:34;;;;;;;13.07;7.45;;;2.80;71.70;;;;;;4998024;28;80812;-78
2021/01/19 00:49:00;;;;;;;10.60;6.78;;;2.80;71.70;;;;;;4998033;28;80561;-77
2021/01/19 00:51:34;;;;;;;12.45;7.50;;;2.70;71.70;;;;;;4997722;28;82687;-77
2021/01/19 00:54:03;;;;;;;10.95;6.72;;;2.70;71.80;;;;;;4999156;28;80582;-77
2021/01/19 00:56:39;;;;;;;13.75;7.07;;;2.70;71.80;;;;;;5015363;28;81177;-76
2021/01/19 00:59:06;;;;;;;11.30;6.68;;;2.60;72.00;;;;;;5000497;28;80458;-77
2021/01/19 01:01:33;;;;;;;11.77;6.78;;;2.60;71.90;;;;;;4999778;28;80175;-77
2021/01/19 01:03:59;;;;;;;11.50;6.85;;;2.60;71.90;;;;;;4997578;28;80020;-77
2021/01/19 01:06:25;;;;;;;13.05;6.70;;;2.60;72.00;;;;;;4998545;28;83487;-77
2021/01/19 01:08:51;;;;;;;12.95;7.88;;;2.50;72.00;;;;;;4998332;28;79656;-77
2021/01/19 01:11:17;;;;;;;11.90;7.07;;;2.40;72.20;;;;;;4997921;28;81081;-77
2021/01/19 01:13:43;;;;;;;15.05;9.23;;;2.30;72.40;;;;;;4997829;28;80759;-77
2021/01/19 01:16:15;;;;;;;12.52;7.22;;;2.20;72.60;;;;;;4997135;28;79705;-76
2021/01/19 01:18:41;;;;;;;13.65;7.65;;;2.20;72.70;;;;;;4997436;28;79665;-78
2021/01/19 01:21:11;;;;;;;13.98;7.70;;;2.20;72.60;;;;;;4997535;28;80797;-78
2021/01/19 01:23:38;;;;;;;13.50;7.13;;;2.20;72.60;;;;;;4995437;28;80573;-77
2021/01/19 01:26:04;;;;;;;13.10;7.38;;;2.20;72.60;;;;;;4997588;28;82727;-77
2021/01/19 01:28:31;;;;;;;13.45;7.63;;;2.20;72.60;;;;;;5015141;28;79989;-76
2021/01/19 01:30:57;;;;;;;12.98;8.02;;;2.20;72.70;;;;;;5014053;28;81182;-78
2021/01/19 01:33:23;;;;;;;13.40;8.48;;;2.20;72.70;;;;;;4995450;28;83084;-78
2021/01/19 01:35:49;;;;;;;10.98;6.70;;;2.10;72.70;;;;;;4994528;28;81363;-78
2021/01/19 01:38:15;;;;;;;13.32;7.32;;;2.10;72.80;;;;;;4996371;28;80246;-77
2021/01/19 01:40:41;;;;;;;15.43;8.48;;;2.10;72.80;;;;;;4997252;28;79751;-77
2021/01/19 01:43:12;;;;;;;15.07;8.48;;;2.00;72.80;;;;;;4998910;28;80369;-77
2021/01/19 01:45:39;;;;;;;13.18;7.22;;;2.00;72.80;;;;;;4995193;28;81959;-76
2021/01/19 01:48:06;;;;;;;14.68;8.13;;;2.00;72.70;;;;;;5011517;28;80055;-77
2021/01/19 01:50:32;;;;;;;14.88;8.32;;;2.00;72.70;;;;;;4992880;28;79910;-78
2021/01/19 01:52:59;;;;;;;13.55;8.32;;;2.00;72.70;;;;;;4992594;28;81711;-78
2021/01/19 01:55:25;;;;;;;14.95;7.63;;;1.90;72.70;;;;;;4992743;28;80966;-77
2021/01/19 01:57:51;;;;;;;11.57;7.28;;;1.90;72.80;;;;;;5010364;28;79732;-77
2021/01/19 02:00:18;;;;;;;17.00;7.72;;;1.80;72.90;;;;;;4994380;28;81194;-77
2021/01/19 02:02:55;;;;;;;17.58;8.18;;;1.80;72.80;;;;;;4996967;28;82710;-76
2021/01/19 02:05:22;;;;;;;11.93;7.28;;;1.80;72.90;;;;;;4999618;28;80149;-78
2021/01/19 02:08:04;;;;;;;12.07;7.30;;;1.70;73.00;;;;;;4995054;28;82526;-78
2021/01/19 02:10:56;;;;;;;15.05;8.15;;;1.60;73.00;;;;;;5011584;28;80678;-77
2021/01/19 02:13:43;;;;;;;12.55;7.25;;;1.60;73.00;;;;;;4962272;28;80642;-77
2021/01/19 02:16:20;;;;;;;12.18;7.22;;;1.60;73.00;;;;;;4995431;28;81164;-78
2021/01/19 02:19:32;;;;;;;13.23;7.85;;;1.60;73.00;;;;;;4993420;28;80018;-78
2021/01/19 02:22:10;;;;;;;14.13;7.80;;;1.60;72.80;;;;;;4991632;28;80061;-78
2021/01/19 02:24:44;;;;;;;11.65;6.90;;;1.50;72.90;;;;;;4991756;28;80347;-77
2021/01/19 02:27:28;;;;;;;12.20;7.97;;;1.40;73.10;;;;;;4992072;28;81613;-77
2021/01/19 02:30:04;;;;;;;12.48;7.97;;;1.50;73.10;;;;;;4991702;28;82702;-77
2021/01/19 02:32:42;;;;;;;14.82;8.13;;;1.40;73.30;;;;;;4991851;28;79881;-76
2021/01/19 02:35:22;;;;;;;15.38;7.18;;;1.40;73.30;;;;;;4991227;28;80721;-76
2021/01/19 02:38:31;;;;;;;13.75;7.40;;;1.40;73.30;;;;;;4991546;28;81884;-77
2021/01/19 02:40:58;;;;;;;13.60;7.47;;;1.40;73.20;;;;;;4991458;28;80331;-77
2021/01/19 02:43:25;;;;;;;11.40;7.47;;;1.40;73.20;;;;;;4991324;28;79831;-77
2021/01/19 02:45:53;;;;;;;13.98;7.97;;;1.40;73.10;;;;;;4993019;28;80479;-78
2021/01/19 02:48:21;;;;;;;11.10;7.28;;;1.40;73.00;;;;;;4995069;28;79763;-77
2021/01/19 02:50:48;;;;;;;19.10;7.15;;;1.40;72.90;;;;;;4996556;28;82004;-78
2021/01/19 02:53:16;;;;;;;13.00;8.23;;;1.40;72.80;;;;;;4996292;28;83832;-76
2021/01/19 02:55:43;;;;;;;13.13;7.70;;;1.40;72.70;;;;;;5015627;28;79827;-76
2021/01/19 02:58:30;;;;;;;13.57;7.20;;;1.40;72.60;;;;;;4978629;28;83574;-76
2021/01/19 03:01:16;;;;;;;13.18;7.78;;;1.50;72.40;;;;;;4975219;28;82237;-76
2021/01/19 03:03:44;;;;;;;16.58;7.68;;;1.40;72.40;;;;;;4974820;28;81012;-75
2021/01/19 03:06:17;;;;;;;13.45;7.43;;;1.30;72.40;;;;;;4971346;28;79887;-76
2021/01/19 03:08:44;;;;;;;13.07;7.95;;;1.30;72.50;;;;;;4989311;28;80684;-77
2021/01/19 03:11:18;;;;;;;14.07;7.90;;;1.20;72.50;;;;;;4972672;28;80466;-76
2021/01/19 03:13:48;;;;;;;12.98;7.53;;;1.30;72.60;;;;;;4972968;28;83536;-76
2021/01/19 03:16:17;;;;;;;16.73;8.95;;;1.20;72.60;;;;;;4972661;28;80163;-76
2021/01/19 03:18:46;;;;;;;15.30;8.80;;;1.20;72.60;;;;;;4972974;28;81927;-76
2021/01/19 03:21:13;;;;;;;14.60;8.25;;;1.10;72.60;;;;;;4972869;28;80742;-77
2021/01/19 03:23:39;;;;;;;12.90;8.05;;;1.10;72.50;;;;;;4972821;28;83086;-76
2021/01/19 03:26:07;;;;;;;14.93;8.82;;;1.20;72.50;;;;;;4973613;28;80747;-77
2021/01/19 03:28:34;;;;;;;14.77;8.55;;;1.10;72.50;;;;;;4973491;28;83694;-76
2021/01/19 03:31:01;;;;;;;15.45;8.02;;;1.20;72.50;;;;;;4973177;28;80928;-75
2021/01/19 03:33:27;;;;;;;15.98;8.68;;;1.10;72.50;;;;;;4972138;28;80842;-76
2021/01/19 03:35:53;;;;;;;14.85;8.48;;;1.10;72.40;;;;;;4988585;28;80826;-76
2021/01/19 03:38:19;;;;;;;15.10;7.97;;;1.20;72.40;;;;;;4970234;28;81109;-76
2021/01/19 03:40:45;;;;;;;16.65;9.52;;;1.20;72.30;;;;;;4970116;28;80474;-75
2021/01/19 03:43:11;;;;;;;14.90;8.45;;;1.20;72.30;;;;;;4971843;28;81252;-75
2021/01/19 03:45:37;;;;;;;14.50;8.73;;;1.20;72.20;;;;;;4969337;28;82494;-75
2021/01/19 03:48:03;;;;;;;15.98;8.13;;;1.20;72.30;;;;;;4969448;28;80877;-74
2021/01/19 03:50:29;;;;;;;18.40;8.73;;;1.20;72.30;;;;;;4985287;28;82775;-75
2021/01/19 03:52:56;;;;;;;14.18;8.57;;;1.20;72.30;;;;;;4969501;28;81861;-75
2021/01/19 03:55:22;;;;;;;14.88;8.50;;;1.10;72.30;;;;;;4969405;28;80962;-75
2021/01/19 03:57:47;;;;;;;15.60;8.40;;;1.10;72.30;;;;;;4999767;28;80041;-76
2021/01/19 04:00:15;;;;;;;13.32;8.02;;;1.10;72.30;;;;;;4994313;28;82322;-76
2021/01/19 04:02:41;;;;;;;16.23;9.32;;;1.10;72.20;;;;;;4994935;28;81519;-76
2021/01/19 04:05:08;;;;;;;16.83;9.20;;;1.10;72.30;;;;;;4994155;28;80661;-76
2021/01/19 04:07:41;;;;;;;13.00;7.95;;;1.10;72.30;;;;;;5012791;28;79859;-76
2021/01/19 04:10:13;;;;;;;14.63;8.18;;;1.20;72.40;;;;;;4993022;28;82686;-76
2021/01/19 04:12:41;;;;;;;15.48;9.25;;;1.20;72.40;;;;;;5012772;28;80538;-76
2021/01/19 04:15:08;;;;;;;17.83;9.35;;;1.20;72.40;;;;;;4994877;28;80687;-76
2021/01/19 04:17:34;;;;;;;15.30;8.45;;;1.10;72.50;;;;;;4996800;28;81131;-76
2021/01/19 04:20:00;;;;;;;13.63;8.68;;;1.20;72.50;;;;;;4999049;28;80387;-76
2021/01/19 04:22:26;;;;;;;13.90;7.88;;;1.10;72.60;;;;;;4994940;28;82961;-75
2021/01/19 04:24:52;;;;;;;16.15;9.25;;;1.10;72.60;;;;;;4993581;28;80679;-76
2021/01/19 04:27:19;;;;;;;13.65;7.90;;;1.10;72.70;;;;;;4993060;28;80743;-76
2021/01/19 04:29:45;;;;;;;15.18;8.75;;;1.10;72.80;;;;;;5011396;28;79599;-76
2021/01/19 04:32:11;;;;;;;15.85;8.45;;;1.00;72.80;;;;;;5011372;28;80582;-75
2021/01/19 04:34:37;;;;;;;15.18;8.48;;;0.90;72.80;;;;;;5011679;28;80068;-75
2021/01/19 04:37:03;;;;;;;13.30;8.18;;;0.90;72.80;;;;;;4991782;28;83027;-75
2021/01/19 04:39:29;;;;;;;13.88;8.70;;;0.80;72.90;;;;;;5009878;28;79875;-75
2021/01/19 04:41:56;;;;;;;15.15;8.27;;;0.80;73.00;;;;;;4992145;28;84039;-75
2021/01/19 04:44:24;;;;;;;16.75;8.40;;;0.80;73.10;;;;;;5009951;28;80754;-74
2021/01/19 04:46:51;;;;;;;16.88;8.90;;;0.70;73.10;;;;;;5011276;28;80417;-76
2021/01/19 04:49:17;;;;;;;15.05;8.43;;;0.60;73.10;;;;;;4994133;28;81586;-76
2021/01/19 04:51:46;;;;;;;14.43;8.23;;;0.50;73.10;;;;;;4994514;28;83572;-76
2021/01/19 04:54:17;;;;;;;16.92;9.20;;;0.40;73.30;;;;;;4993932;28;82758;-76
2021/01/19 04:57:07;;;;;;;17.48;9.32;;;0.40;73.40;;;;;;5010709;28;80562;-76
2021/01/19 04:59:38;;;;;;;14.48;7.97;;;0.40;73.40;;;;;;4992839;28;80585;-75
2021/01/19 05:02:33;;;;;;;14.15;8.43;;;0.40;73.50;;;;;;5010843;28;83432;-76
2021/01/19 05:05:35;;;;;;;18.40;9.40;;;0.40;73.40;;;;;;5007502;28;80851;-76
2021/01/19 05:08:23;;;;;;;19.67;8.82;;;0.30;73.50;;;;;;5013918;28;80655;-76
2021/01/19 05:10:59;;;;;;;15.45;9.15;;;0.30;73.60;;;;;;5013326;28;79804;-76
2021/01/19 05:13:50;;;;;;;15.13;8.83;;;0.40;73.50;;;;;;5012676;28;80654;-76
2021/01/19 05:16:26;;;;;;;15.52;8.75;;;0.40;73.40;;;;;;4993327;28;81971;-75
2021/01/19 05:18:52;;;;;;;16.83;9.27;;;0.30;73.30;;;;;;4992257;28;80996;-75
2021/01/19 05:21:18;;;;;;;21.25;9.73;;;0.30;73.20;;;;;;4993730;28;81856;-76
2021/01/19 05:23:44;;;;;;;16.48;9.07;;;0.30;73.00;;;;;;5012639;28;79879;-76
2021/01/19 05:26:16;;;;;;;14.88;9.27;;;0.40;72.90;;;;;;4996018;28;80623;-76
2021/01/19 05:28:50;;;;;;;15.00;9.45;;;0.40;72.90;;;;;;5015154;28;80646;-77
2021/01/19 05:31:16;;;;;;;20.52;9.68;;;0.40;73.00;;;;;;5015268;28;80138;-76
2021/01/19 05:34:08;;;;;;;15.77;8.48;;;0.30;73.00;;;;;;5015304;28;80515;-75
2021/01/19 05:36:43;;;;;;;18.15;10.07;;;0.20;73.10;;;;;;4992235;28;82498;-77
2021/01/19 05:39:13;;;;;;;16.38;8.63;;;0.20;73.20;;;;;;4992891;28;84193;-76
2021/01/19 05:41:45;;;;;;;15.00;8.23;;;0.20;73.30;;;;;;4995082;28;84101;-76
2021/01/19 05:44:32;;;;;;;18.27;9.50;;;0.20;73.30;;;;;;5011520;28;80642;-77
2021/01/19 05:47:06;;;;;;;17.88;10.23;;;0.30;73.10;;;;;;4993660;28;81921;-75
2021/01/19 05:49:32;;;;;;;18.45;10.00;;;0.30;73.00;;;;;;4990015;28;84533;-76
2021/01/19 05:52:10;;;;;;;16.90;8.25;;;0.30;72.90;;;;;;4989088;28;83212;-76
2021/01/19 05:54:40;;;;;;;14.93;8.00;;;0.40;72.90;;;;;;4991903;28;82626;-75
2021/01/19 05:57:10;;;;;;;18.73;8.70;;;0.30;72.90;;;;;;4986369;28;80770;-75
2021/01/19 05:59:47;;;;;;;11.52;7.60;;;0.20;72.90;;;;;;4973148;28;80877;-75
2021/01/19 06:02:14;;;;;;;14.75;8.85;;;0.30;73.00;;;;;;4972918;28;80632;-76
2021/01/19 06:04:43;;;;;;;14.63;9.02;;;0.20;72.90;;;;;;4973459;28;82461;-75
2021/01/19 06:07:11;;;;;;;16.30;9.65;;;0.20;72.90;;;;;;4974610;28;81737;-78
2021/01/19 06:09:38;;;;;;;14.98;9.43;;;0.20;72.90;;;;;;4975222;28;81231;-77
2021/01/19 06:12:05;;;;;;;16.65;9.30;;;0.20;73.00;;;;;;4974961;28;80438;-76
2021/01/19 06:14:32;;;;;;;17.33;8.55;;;0.20;73.00;;;;;;4974333;28;79914;-76
2021/01/19 06:17:14;;;;;;;18.48;9.52;;;0.20;73.10;;;;;;4973531;28;83076;-75
2021/01/19 06:19:43;;;;;;;18.10;8.60;;;0.20;73.10;;;;;;4989152;28;80519;-75
2021/01/19 06:22:12;;;;;;;17.30;8.18;;;0.30;73.00;;;;;;4970105;28;82447;-76
2021/01/19 06:24:43;;;;;;;18.90;9.40;;;0.30;72.90;;;;;;4971343;28;81184;-76
2021/01/19 06:27:22;;;;;;;19.13;10.40;;;0.30;72.90;;;;;;4970710;28;82565;-74
2021/01/19 06:29:49;;;;;;;23.52;9.85;;;0.20;72.90;;;;;;4987082;28;83232;-75
2021/01/19 06:32:22;;;;;;;18.73;9.43;;;0.30;72.80;;;;;;4972432;28;83171;-75
2021/01/19 06:34:49;;;;;;;17.65;10.38;;;0.20;72.60;;;;;;4993899;28;80708;-76
2021/01/19 06:37:30;;;;;;;15.82;9.20;;;0.20;72.50;;;;;;4966872;28;82917;-75
2021/01/19 06:39:57;;;;;;;19.40;10.40;;;0.20;72.60;;;;;;4957433;28;81774;-75
2021/01/19 06:42:34;;;;;;;18.97;9.57;;;0.20;72.50;;;;;;4980970;28;83943;-76
2021/01/19 06:45:11;;;;;;;25.02;10.43;;;0.20;72.60;;;;;;4982780;28;81114;-75
2021/01/19 06:47:46;;;;;;;18.55;10.18;;;0.20;72.60;;;;;;4954914;28;84684;-74
2021/01/19 06:50:12;;;;;;;18.65;10.30;;;0.20;72.60;;;;;;4953952;28;83534;-75
2021/01/19 06:52:41;;;;;;;16.33;9.47;;;0.20;72.50;;;;;;4985615;28;84596;-74
2021/01/19 06:55:17;;;;;;;17.37;9.80;;;0.10;72.60;;;;;;4960149;28;81110;-74
2021/01/19 06:58:32;;;;;;;18.48;10.15;;;0.20;72.90;;;;;;4969623;28;82222;-74
2021/01/19 07:01:05;;;;;;;24.58;10.98;;;0.20;72.90;;;;;;4976382;28;84648;-76
2021/01/19 07:03:36;;;;;;;16.98;9.82;;;0.20;72.80;;;;;;4964703;28;86245;-77
2021/01/19 07:06:04;;;;;;;15.33;8.50;;;0.20;72.60;;;;;;4981227;28;80881;-76
2021/01/19 07:08:55;;;;;;;16.88;9.18;;;0.20;72.60;;;;;;4978755;28;81244;-76
2021/01/19 07:11:26;;;;;;;16.00;9.23;;;0.20;72.60;;;;;;4994549;28;80443;-77
2021/01/19 07:14:09;;;;;;;19.13;10.27;;;0.10;72.60;;;;;;4995393;28;81857;-77
2021/01/19 07:16:56;;;;;;;15.52;8.52;;;0.10;72.60;;;;;;4975449;28;83989;-77
2021/01/19 07:19:46;;;;;;;16.15;9.52;;;0.10;72.60;;;;;;4977334;28;83643;-76
2021/01/19 07:22:48;;;;;;;18.23;9.37;;;0.20;72.40;;;;;;4977984;28;83061;-76
2021/01/19 07:25:14;;;;;;;17.42;9.75;;;0.20;72.30;;;;;;4963738;28;82207;-75
2021/01/19 07:27:40;;;;;;;19.52;9.80;;;0.10;72.30;;;;;;4977288;28;82034;-75
2021/01/19 07:30:08;;;;;;;15.07;9.57;;;0.10;72.30;;;;;;4977431;28;81090;-76
2021/01/19 07:32:37;;;;;;;19.75;10.30;;;0.10;72.30;;;;;;4979989;28;82711;-74
2021/01/19 07:35:06;;;;;;;17.63;9.55;;;0.10;72.40;;;;;;4980453;28;84105;-75
2021/01/19 07:37:33;;;;;;;19.90;11.33;;;0.10;72.30;;;;;;4982376;28;80788;-74
2021/01/19 07:40:00;;;;;;;23.90;10.70;;;0.10;72.40;;;;;;4994944;28;84754;-74
2021/01/19 07:42:26;;;;;;;21.27;10.20;;;0.10;72.50;;;;;;4977361;28;84081;-75
2021/01/19 07:44:57;;;;;;;16.83;9.43;;;0.10;72.60;;;;;;4976541;28;84407;-75
2021/01/19 07:47:34;;;;;;;17.90;10.50;;;0.00;72.70;;;;;;4978810;28;81979;-74
2021/01/19 07:50:07;;;;;;;18.80;10.23;;;0.00;72.70;;;;;;4960440;28;84258;-75
2021/01/19 07:52:39;;;;;;;21.30;10.57;;;0.00;72.70;;;;;;4961704;28;84688;-75
2021/01/19 07:55:17;;;;;;;22.53;11.43;;;0.00;72.70;;;;;;4975637;28;84981;-75
2021/01/19 07:57:48;;;;;;;26.37;12.30;;;0.10;72.60;;;;;;4963174;28;84600;-75
2021/01/19 08:00:24;;;;;;;21.47;10.40;;;0.10;72.40;;;;;;4968340;28;83802;-75
2021/01/19 08:03:03;;;;;;;21.90;11.67;;;0.20;72.40;;;;;;4974911;28;84780;-75
2021/01/19 08:05:28;;;;;;;19.67;9.00;;;0.20;72.30;;;;;;4950303;28;84631;-76
2021/01/19 08:07:56;;;;;;;21.87;9.93;;;0.20;72.30;;;;;;4962140;28;80754;-73
2021/01/19 08:10:33;;;;;;;22.47;10.40;;;0.20;72.40;;;;;;4962095;28;80540;-73
2021/01/19 08:13:03;;;;;;;23.83;11.93;;;0.30;72.20;;;;;;4960726;28;83845;-75
2021/01/19 08:15:32;;;;;;;20.70;10.67;;;0.40;72.10;;;;;;4960007;28;82811;-75
2021/01/19 08:17:59;;;;;;;20.57;9.47;;;0.40;71.70;;;;;;4957582;28;86059;-75
2021/01/19 08:20:36;;;;;;;18.77;9.70;;;0.50;71.40;;;;;;4955059;28;85575;-72
2021/01/19 08:23:16;;;;;;;19.27;9.73;;;0.50;71.10;;;;;;4960217;28;81244;-72
2021/01/19 08:25:43;;;;;;;20.88;10.23;;;0.50;71.10;;;;;;4960329;28;82050;-72
2021/01/19 08:28:10;;;;;;;22.30;11.80;;;0.50;71.10;;;;;;4977062;28;83755;-66
2021/01/19 08:30:40;;;;;;;20.05;11.07;;;0.50;71.00;;;;;;4974840;28;83376;-68
2021/01/19 08:33:06;;;;;;;21.23;11.00;;;0.60;71.00;;;;;;4957328;28;85178;-67
2021/01/19 08:35:33;;;;;;;33.05;11.20;;;0.80;70.80;;;;;;4957171;28;85040;-66
2021/01/19 08:38:02;;;;;;;17.85;10.07;;;0.90;70.60;;;;;;4975956;28;83464;-68
2021/01/19 08:40:34;;;;;;;21.80;11.85;;;1.00;70.50;;;;;;4957087;28;84373;-66
2021/01/19 08:43:03;;;;;;;21.80;10.88;;;1.10;70.20;;;;;;4956204;28;84955;-68
2021/01/19 08:45:32;;;;;;;24.73;11.77;;;1.20;70.10;;;;;;4955208;28;85102;-66
2021/01/19 08:47:59;;;;;;;24.45;11.75;;;1.40;69.70;;;;;;4955717;28;84488;-65
2021/01/19 08:50:26;;;;;;;18.90;11.02;;;1.50;69.30;;;;;;4955779;28;84003;-66
2021/01/19 08:52:53;;;;;;;23.70;11.43;;;1.50;69.10;;;;;;4955606;28;84282;-65
2021/01/19 08:55:26;;;;;;;25.08;12.55;;;1.60;68.60;;;;;;4955338;28;85109;-65
2021/01/19 08:57:57;;;;;;;24.90;11.95;;;1.70;68.50;;;;;;4966340;28;85504;-68
2021/01/19 09:00:33;;;;;;;21.65;11.20;;;1.80;68.40;;;;;;4974172;28;84101;-68
2021/01/19 09:03:00;;;;;;;24.98;12.45;;;1.90;68.10;;;;;;4975643;28;85282;-69
2021/01/19 09:05:30;;;;;;;21.48;11.50;;;2.10;68.10;;;;;;4993774;28;83197;-68
2021/01/19 09:07:59;;;;;;;21.75;11.30;;;2.30;67.30;;;;;;4974545;28;84089;-67
2021/01/19 09:10:27;;;;;;;26.45;11.45;;;2.40;66.90;;;;;;4974094;28;84356;-67
2021/01/19 09:12:54;;;;;;;20.92;9.93;;;2.60;66.80;;;;;;4980503;28;86644;-68
2021/01/19 09:15:21;;;;;;;27.33;12.82;;;2.70;66.40;;;;;;4977719;28;83039;-67
2021/01/19 09:17:55;;;;;;;21.50;12.82;;;2.80;66.30;;;;;;4974576;28;83835;-67
2021/01/19 09:20:22;;;;;;;21.05;11.40;;;2.90;66.00;;;;;;4974997;28;85141;-68
2021/01/19 09:22:48;;;;;;;23.17;11.80;;;3.00;66.00;;;;;;4973820;28;85743;-68
2021/01/19 09:25:14;;;;;;;22.98;12.65;;;3.20;65.60;;;;;;4975262;28;83873;-68
2021/01/19 09:27:41;;;;;;;27.20;13.35;;;3.50;64.70;;;;;;4977266;28;83331;-68
2021/01/19 09:30:09;;;;;;;27.33;12.38;;;3.70;64.20;;;;;;4975953;28;85313;-68
2021/01/19 09:32:43;;;;;;;23.52;12.80;;;3.80;63.60;;;;;;4976062;28;84365;-69
2021/01/19 09:35:11;;;;;;;23.55;13.35;;;3.80;63.40;;;;;;4975843;28;84565;-68
2021/01/19 09:37:37;;;;;;;25.33;12.45;;;3.70;63.40;;;;;;4976048;28;85736;-68
2021/01/19 09:40:04;;;;;;;23.20;11.75;;;3.80;63.60;;;;;;4977339;28;84348;-68
2021/01/19 09:42:31;;;;;;;22.95;13.20;;;4.10;62.50;;;;;;4977338;28;86578;-70
2021/01/19 09:44:58;;;;;;;20.58;11.10;;;4.40;62.00;;;;;;4997522;28;82938;-68
2021/01/19 09:47:25;;;;;;;21.70;11.93;;;4.80;60.80;;;;;;4978881;28;83881;-70
2021/01/19 09:49:53;;;;;;;20.80;12.38;;;5.00;59.50;;;;;;4978753;28;84214;-67
2021/01/19 09:52:20;;;;;;;23.27;11.45;;;5.20;59.50;;;;;;4975100;28;86470;-67
2021/01/19 09:54:45;;;;;;;23.83;11.95;;;5.40;59.20;;;;;;4974512;28;84292;-68
2021/01/19 09:57:11;;;;;;;19.02;11.32;;;6.00;58.00;;;;;;4972965;28;86050;-69
2021/01/19 09:59:40;;;;;;;18.42;11.30;;;6.40;56.80;;;;;;4992481;28;83402;-70
2021/01/19 10:02:06;;;;;;;21.08;12.90;;;6.80;56.00;;;;;;4992422;28;84014;-68
2021/01/19 10:04:32;;;;;;;21.92;11.88;;;7.00;55.00;;;;;;4973849;28;84543;-68
2021/01/19 10:07:04;;;;;;;22.83;13.30;;;7.40;54.20;;;;;;4991819;28;84519;-66
2021/01/19 10:09:31;;;;;;;20.08;12.98;;;8.00;52.70;;;;;;4974382;28;85859;-67
2021/01/19 10:11:59;;;;;;;22.90;12.23;;;8.50;51.30;;;;;;4974374;28;84030;-68
2021/01/19 10:14:37;;;;;;;25.42;12.30;;;8.50;50.90;;;;;;4991502;28;85000;-70
2021/01/19 10:17:04;;;;;;;19.58;11.30;;;8.50;50.90;;;;;;4973521;28;84688;-68
2021/01/19 10:19:31;;;;;;;21.88;12.10;;;8.70;50.50;;;;;;4974223;28;85253;-70
2021/01/19 10:22:08;;;;;;;22.48;12.35;;;8.90;50.50;;;;;;4974927;28;83497;-70
2021/01/19 10:24:35;;;;;;;24.05;12.23;;;9.30;50.40;;;;;;4973034;28;83876;-70
2021/01/19 10:27:09;;;;;;;22.35;13.13;;;10.30;48.30;;;;;;4971220;28;85301;-69
2021/01/19 10:29:37;;;;;;;21.23;12.02;;;11.00;46.40;;;;;;4971767;28;83726;-72
2021/01/19 10:32:05;;;;;;;17.70;11.30;;;11.90;44.60;;;;;;4972395;28;85534;-72
2021/01/19 10:34:35;;;;;;;19.40;11.65;;;12.90;42.40;;;;;;4992390;28;84659;-71
2021/01/19 10:37:02;;;;;;;20.30;11.90;;;13.60;41.00;;;;;;4975179;28;84559;-72
2021/01/19 10:39:30;;;;;;;18.70;11.68;;;13.60;40.90;;;;;;4975513;28;86667;-70
2021/01/19 10:41:57;;;;;;;24.20;11.15;;;14.10;40.20;;;;;;4977511;28;84227;-71
2021/01/19 10:44:26;;;;;;;17.50;10.15;;;14.70;39.00;;;;;;4975702;28;83289;-68
2021/01/19 10:46:59;;;;;;;21.27;11.00;;;15.40;37.90;;;;;;4976083;28;84714;-70
2021/01/19 10:49:30;;;;;;;23.38;11.07;;;16.00;36.50;;;;;;4974378;28;85268;-69
2021/01/19 10:51:57;;;;;;;19.13;10.52;;;16.60;35.90;;;;;;4973568;28;84573;-72
2021/01/19 10:54:24;;;;;;;22.90;10.68;;;17.20;34.90;;;;;;4973994;28;84023;-70
2021/01/19 10:57:09;;;;;;;18.13;11.95;;;17.90;33.90;;;;;;4990896;28;83241;-70
2021/01/19 10:59:37;;;;;;;19.30;10.35;;;18.00;34.30;;;;;;4972618;28;84639;-69
2021/01/19 11:02:06;;;;;;;27.10;12.27;;;18.80;32.70;;;;;;4971885;28;83933;-70
2021/01/19 11:04:32;;;;;;;20.63;12.73;;;19.40;32.00;;;;;;4990783;28;83973;-72
2021/01/19 11:07:01;;;;;;;23.15;11.25;;;19.90;31.40;;;;;;4990461;28;83858;-71
2021/01/19 11:09:26;;;;;;;17.45;11.65;;;19.80;31.40;;;;;;4971138;28;84613;-70
2021/01/19 11:11:52;;;;;;;15.10;10.73;;;20.00;31.30;;;;;;4971401;28;84545;-71
2021/01/19 11:14:18;;;;;;;18.75;11.95;;;20.10;31.20;;;;;;4990189;28;84175;-71
2021/01/19 11:16:44;;;;;;;18.55;10.95;;;20.00;31.40;;;;;;4972292;28;83573;-70
2021/01/19 11:19:12;;;;;;;24.35;13.90;;;20.90;30.40;;;;;;4972382;28;84699;-71
2021/01/19 11:21:39;;;;;;;18.42;9.05;;;21.90;29.30;;;;;;4972618;28;85433;-70
2021/01/19 11:24:07;;;;;;;21.65;9.60;;;23.10;28.00;;;;;;4992344;28;82915;-69
2021/01/19 11:26:36;;;;;;;17.10;9.70;;;24.00;27.10;;;;;;4973514;28;82883;-69
2021/01/19 11:29:02;;;;;;;19.90;10.63;;;24.60;26.20;;;;;;4974045;28;82320;-69
2021/01/19 11:31:30;;;;;;;23.00;10.77;;;25.00;25.90;;;;;;4989967;28;84686;-70
2021/01/19 11:34:02;;;;;;;17.67;10.07;;;25.40;25.60;;;;;;4969329;28;85805;-70
2021/01/19 11:36:29;;;;;;;26.30;10.70;;;25.70;25.30;;;;;;4987281;28;84732;-70
2021/01/19 11:38:58;;;;;;;14.00;6.82;;;26.00;24.90;;;;;;4987780;28;84756;-70
2021/01/19 11:41:26;;;;;;;19.75;8.15;;;25.00;25.70;;;;;;4973885;28;83115;-69
2021/01/19 11:43:53;;;;;;;21.25;8.48;;;24.10;26.80;;;;;;4973562;28;84215;-69
2021/01/19 11:46:21;;;;;;;16.85;7.68;;;24.60;26.30;;;;;;4972970;28;81959;-70
2021/01/19 11:48:48;;;;;;;6.78;4.57;;;25.70;25.20;;;;;;4973840;28;83030;-70
2021/01/19 11:51:22;;;;;;;10.73;6.38;;;26.50;24.10;;;;;;4973405;28;81089;-70
2021/01/19 11:53:53;;;;;;;12.80;6.88;;;26.20;24.30;;;;;;4973945;28;82658;-70
2021/01/19 11:56:19;;;;;;;15.68;8.40;;;25.70;24.70;;;;;;4991684;28;81311;-68
2021/01/19 11:58:46;;;;;;;16.27;8.98;;;25.60;25.10;;;;;;4991372;28;81770;-71
2021/01/19 12:01:20;;;;;;;15.98;8.95;;;25.90;24.60;;;;;;4991621;28;81494;-69
2021/01/19 12:03:46;;;;;;;13.10;6.93;;;25.90;24.90;;;;;;4974093;28;80866;-67
2021/01/19 12:06:13;;;;;;;10.77;6.38;;;26.70;24.30;;;;;;4973592;28;82401;-70
2021/01/19 12:08:39;;;;;;;9.23;4.88;;;27.00;24.10;;;;;;4974917;28;82247;-71
2021/01/19 12:11:11;;;;;;;9.13;4.20;;;26.40;24.50;;;;;;4995508;28;80491;-70
2021/01/19 12:13:38;;;;;;;7.03;3.80;;;26.50;24.40;;;;;;4975594;28;82532;-71
2021/01/19 12:16:05;;;;;;;7.25;4.50;;;27.50;23.50;;;;;;4992679;28;81642;-70
2021/01/19 12:18:31;;;;;;;8.20;4.28;;;28.50;22.40;;;;;;4974964;28;83468;-70
2021/01/19 12:20:57;;;;;;;8.68;3.92;;;29.20;21.80;;;;;;4994697;28;81756;-71
2021/01/19 12:23:23;;;;;;;5.75;4.07;;;29.80;21.30;;;;;;4978625;28;83400;-68
2021/01/19 12:25:49;;;;;;;8.20;4.20;;;29.90;21.40;;;;;;4978679;28;83385;-69
2021/01/19 12:28:15;;;;;;;10.25;4.07;;;29.70;21.40;;;;;;4977764;28;83396;-69
2021/01/19 12:30:41;;;;;;;8.48;4.20;;;28.40;22.70;;;;;;4978332;28;83586;-68
2021/01/19 12:33:07;;;;;;;7.35;3.70;;;26.70;24.20;;;;;;4993153;28;81506;-69
2021/01/19 12:35:33;;;;;;;6.55;3.83;;;25.70;25.30;;;;;;4993720;28;81663;-70
2021/01/19 12:37:58;;;;;;;7.60;3.45;;;25.30;26.00;;;;;;4976790;28;82163;-70
2021/01/19 12:40:25;;;;;;;7.82;4.13;;;25.40;25.80;;;;;;4976686;28;81242;-70
2021/01/19 12:42:51;;;;;;;8.40;3.80;;;25.50;25.70;;;;;;4977425;28;81693;-69
2021/01/19 12:45:17;;;;;;;6.40;3.38;;;26.10;24.90;;;;;;4977247;28;81961;-70
2021/01/19 12:47:47;;;;;;;7.82;3.50;;;27.20;24.10;;;;;;4976729;28;80758;-67
2021/01/19 12:50:13;;;;;;;6.13;3.65;;;28.50;22.90;;;;;;4995425;28;80717;-69
2021/01/19 12:52:39;;;;;;;4.57;3.33;;;29.10;22.10;;;;;;4994811;28;80662;-69
2021/01/19 12:55:05;;;;;;;7.93;4.13;;;28.40;22.80;;;;;;4994861;28;81866;-69
2021/01/19 12:57:32;;;;;;;10.93;3.97;;;27.80;23.20;;;;;;4975574;28;81734;-71